Time;durP1;ratioP1;P1;durP2;ratioP2;P2;SDS_P1;SDS_P2;PMS_P1;PMS_P2;Temp;Humidity;BMP_temperature;BMP_pressure;BME280_temperature;BME280_humidity;BME280_pressure;Samples;Min_cycle;Max_cycle;Signal;HPM_P1;HPM_P2
2021/06/13 06:01:45;;;;;;;15.48;8.93;;;;;;;12.37;83.06;99988.06;1610011;85;26207;-64
2021/06/13 06:04:12;;;;;;;14.73;5.33;;;;;;;12.36;83.06;99988.39;1621385;86;25776;-64
2021/06/13 06:06:38;;;;;;;14.15;5.65;;;;;;;12.39;83.30;99974.17;1626596;85;27308;-65
2021/06/13 06:09:05;;;;;;;15.35;5.70;;;;;;;12.36;82.99;99978.90;1614453;86;26012;-64
2021/06/13 06:11:32;;;;;;;16.15;4.85;;;;;;;12.33;82.86;99979.80;1629635;86;26634;-65
2021/06/13 06:13:58;;;;;;;16.15;5.90;;;;;;;12.35;83.10;99989.53;1631271;86;25752;-64
2021/06/13 06:16:25;;;;;;;12.23;5.17;;;;;;;12.35;83.22;99999.02;1635626;86;25863;-64
2021/06/13 06:18:52;;;;;;;13.80;4.95;;;;;;;12.35;83.08;100002.52;1625395;86;27332;-64
2021/06/13 06:21:21;;;;;;;13.80;5.37;;;;;;;12.35;83.26;100009.30;1627831;86;25837;-64
2021/06/13 06:23:46;;;;;;;15.75;5.67;;;;;;;12.39;83.45;100005.37;1630426;86;25938;-63
2021/06/13 06:26:13;;;;;;;14.23;5.60;;;;;;;12.43;83.62;100010.36;1629567;85;25862;-64
2021/06/13 06:28:39;;;;;;;11.25;5.53;;;;;;;12.46;83.38;100021.91;1633258;86;25848;-63
2021/06/13 06:31:05;;;;;;;13.03;6.00;;;;;;;12.52;83.93;100024.11;1657189;85;26920;-63
2021/06/13 06:33:32;;;;;;;10.28;5.28;;;;;;;12.59;83.77;100024.95;1651513;85;25750;-64
2021/06/13 06:35:58;;;;;;;13.62;5.55;;;;;;;12.67;83.97;100025.47;1656000;85;26014;-64
2021/06/13 06:38:25;;;;;;;11.60;5.85;;;;;;;12.85;84.27;100021.27;1642394;85;27834;-64
2021/06/13 06:40:51;;;;;;;17.15;5.67;;;;;;;13.03;84.95;100021.94;1620984;85;25874;-62
2021/06/13 06:43:17;;;;;;;15.35;5.42;;;;;;;13.18;84.45;100021.34;1626942;85;29665;-63
2021/06/13 06:45:44;;;;;;;19.23;6.25;;;;;;;13.27;83.96;100028.05;1614038;85;26448;-64
2021/06/13 06:48:10;;;;;;;15.28;5.40;;;;;;;13.32;83.44;100021.65;1642515;85;25852;-64
2021/06/13 06:50:36;;;;;;;16.05;5.40;;;;;;;13.37;83.03;100021.44;1642099;85;25865;-65
2021/06/13 06:53:03;;;;;;;10.38;5.10;;;;;;;13.45;83.23;100012.42;1641530;85;26548;-65
2021/06/13 06:55:29;;;;;;;15.23;5.37;;;;;;;13.55;83.02;100017.42;1646711;85;27317;-64
2021/06/13 06:57:58;;;;;;;12.88;5.17;;;;;;;13.67;83.37;100018.57;1643572;85;26097;-66
2021/06/13 07:00:24;;;;;;;12.58;5.20;;;;;;;13.85;82.91;100023.27;1641534;85;25739;-67
2021/06/13 07:02:51;;;;;;;19.52;9.03;;;;;;;14.18;84.08;100020.45;1636771;85;26004;-67
2021/06/13 07:05:17;;;;;;;23.15;6.65;;;;;;;14.42;83.72;100020.22;1622072;86;25900;-66
2021/06/13 07:07:45;;;;;;;14.00;5.45;;;;;;;14.65;83.60;100020.00;1621519;86;27311;-67
2021/06/13 07:10:13;;;;;;;10.65;4.17;;;;;;;14.81;82.58;100031.54;1605262;87;25813;-66
2021/06/13 07:12:41;;;;;;;12.70;5.12;;;;;;;14.90;81.60;100022.69;1604985;87;25919;-67
2021/06/13 07:15:10;;;;;;;16.23;4.15;;;;;;;14.89;80.36;100027.89;1632610;86;26195;-67
2021/06/13 07:17:37;;;;;;;11.10;4.53;;;;;;;14.89;80.21;100031.41;1639497;85;25804;-66
2021/06/13 07:20:06;;;;;;;13.58;5.62;;;;;;;14.92;80.37;100028.00;1636352;85;27390;-67
2021/06/13 07:22:32;;;;;;;8.35;4.33;;;;;;;14.99;79.93;100043.75;1611871;87;25975;-66
2021/06/13 07:25:01;;;;;;;14.95;4.83;;;;;;;14.94;79.21;100039.33;1642308;85;25850;-67
2021/06/13 07:27:27;;;;;;;11.00;4.15;;;;;;;14.99;79.64;100043.75;1629884;86;25934;-65
2021/06/13 07:29:53;;;;;;;12.47;3.98;;;;;;;15.04;78.38;100031.25;1642468;85;25861;-62
2021/06/13 07:32:20;;;;;;;12.85;4.95;;;;;;;15.12;78.16;100045.89;1646741;85;27427;-66
2021/06/13 07:34:46;;;;;;;11.73;4.20;;;;;;;15.25;79.07;100049.34;1635935;85;25695;-66
2021/06/13 07:37:13;;;;;;;9.30;4.35;;;;;;;15.59;79.38;100034.89;1613472;86;25945;-66
2021/06/13 07:39:40;;;;;;;15.80;5.28;;;;;;;15.82;78.73;100038.66;1624145;86;25763;-66
2021/06/13 07:42:12;;;;;;;10.32;4.33;;;;;;;15.94;77.75;100054.16;1626290;86;25736;-65
2021/06/13 07:44:39;;;;;;;11.03;3.85;;;;;;;16.06;77.11;100044.52;1638224;85;27924;-66
2021/06/13 07:47:06;;;;;;;8.18;3.80;;;;;;;16.15;76.11;100050.37;1635563;85;27260;-66
2021/06/13 07:49:32;;;;;;;13.30;3.62;;;;;;;16.20;75.74;100053.62;1627482;85;25773;-66
2021/06/13 07:51:59;;;;;;;11.83;4.22;;;;;;;16.23;74.67;100050.77;1627712;85;26672;-67
2021/06/13 07:54:28;;;;;;;9.98;4.17;;;;;;;16.21;74.81;100059.89;1615430;86;25881;-68
2021/06/13 07:56:55;;;;;;;16.15;4.37;;;;;;;16.26;75.07;100065.08;1633657;85;27322;-68
2021/06/13 07:59:24;;;;;;;17.57;4.60;;;;;;;16.27;74.14;100061.77;1609200;87;25686;-64
2021/06/13 08:01:50;;;;;;;14.65;4.50;;;;;;;16.27;73.55;100071.32;1608505;87;25929;-66
2021/06/13 08:04:18;;;;;;;14.33;4.40;;;;;;;16.24;73.63;100078.26;1611810;87;26216;-67
2021/06/13 08:06:44;;;;;;;18.07;4.70;;;;;;;16.20;73.21;100081.48;1601980;87;25875;-68
2021/06/13 08:09:11;;;;;;;9.45;4.15;;;;;;;16.18;73.29;100087.29;1601189;86;26485;-68
2021/06/13 08:11:37;;;;;;;13.15;4.97;;;;;;;16.21;73.16;100087.95;1607451;87;25906;-66
2021/06/13 08:14:04;;;;;;;16.35;4.40;;;;;;;16.16;72.11;100080.61;1604149;87;26520;-68
2021/06/13 08:16:30;;;;;;;10.40;3.52;;;;;;;16.15;72.24;100090.72;1601542;87;25779;-67
2021/06/13 08:18:57;;;;;;;15.18;4.53;;;;;;;16.12;72.12;100083.23;1610799;86;25915;-68
2021/06/13 08:21:24;;;;;;;11.57;4.15;;;;;;;16.13;71.91;100096.32;1605014;87;27338;-68
2021/06/13 08:23:50;;;;;;;12.15;4.00;;;;;;;16.10;72.13;100101.11;1615918;87;25883;-68
2021/06/13 08:26:17;;;;;;;8.73;3.90;;;;;;;16.09;71.70;100098.96;1629440;85;26376;-68
2021/06/13 08:28:43;;;;;;;11.05;3.80;;;;;;;16.04;71.42;100100.58;1629943;85;25917;-67
2021/06/13 08:31:09;;;;;;;10.95;4.45;;;;;;;15.99;71.13;100096.17;1647697;85;25966;-68
2021/06/13 08:33:36;;;;;;;13.88;4.40;;;;;;;15.96;71.58;100108.36;1650013;85;27358;-66
2021/06/13 08:36:03;;;;;;;16.45;4.30;;;;;;;15.91;71.32;100104.52;1629056;85;25653;-67
2021/06/13 08:38:29;;;;;;;14.47;4.60;;;;;;;15.85;71.11;100117.59;1612384;85;26528;-64
2021/06/13 08:40:56;;;;;;;17.73;5.50;;;;;;;15.80;71.19;100115.13;1636071;85;25934;-65
2021/06/13 08:43:23;;;;;;;15.10;4.85;;;;;;;15.79;71.39;100113.55;1642198;85;25676;-68
2021/06/13 08:45:54;;;;;;;15.78;4.47;;;;;;;15.77;71.47;100112.53;1640695;85;27300;-66
2021/06/13 08:48:28;;;;;;;24.80;8.13;;;;;;;15.77;71.29;100113.12;1642450;85;25808;-69
2021/06/13 08:50:56;;;;;;;8.28;3.70;;;;;;;15.76;72.33;100126.52;1644850;85;25859;-66
2021/06/13 08:53:24;;;;;;;13.25;4.70;;;;;;;15.72;71.84;100125.03;1628417;85;25932;-67
2021/06/13 08:55:51;;;;;;;9.43;4.22;;;;;;;15.64;71.98;100132.20;1599448;87;25751;-69
2021/06/13 08:58:18;;;;;;;11.05;5.28;;;;;;;15.61;72.47;100134.83;1601620;87;28176;-67
2021/06/13 09:00:46;;;;;;;14.38;4.40;;;;;;;15.58;72.79;100140.42;1619977;86;26501;-67
2021/06/13 09:03:13;;;;;;;12.68;4.47;;;;;;;15.55;72.68;100138.96;1618659;87;25861;-68
2021/06/13 09:05:41;;;;;;;15.55;4.87;;;;;;;15.52;72.71;100154.06;1639998;87;25728;-68
2021/06/13 09:08:11;;;;;;;10.32;4.40;;;;;;;15.49;72.76;100147.94;1609864;87;25957;-68
2021/06/13 09:10:46;;;;;;;14.47;4.65;;;;;;;15.46;72.88;100151.34;1620545;87;27359;-70
2021/06/13 09:13:23;;;;;;;14.18;4.67;;;;;;;15.46;73.22;100155.43;1622236;87;25833;-68
2021/06/13 09:15:53;;;;;;;16.12;4.97;;;;;;;15.41;72.85;100161.12;1614098;87;25951;-65
2021/06/13 09:18:40;;;;;;;15.40;4.80;;;;;;;15.37;72.81;100162.96;1626557;85;26238;-66
2021/06/13 09:21:26;;;;;;;16.15;4.70;;;;;;;15.33;73.02;100156.05;1617717;86;25934;-66
2021/06/13 09:23:54;;;;;;;14.68;4.42;;;;;;;15.33;72.65;100173.76;1624474;87;27268;-66
2021/06/13 09:26:27;;;;;;;13.43;4.40;;;;;;;15.27;72.70;100169.13;1624386;87;25795;-67
2021/06/13 09:28:58;;;;;;;14.65;4.47;;;;;;;15.27;72.85;100170.48;1622912;87;25993;-69
2021/06/13 09:31:29;;;;;;;11.08;4.33;;;;;;;15.27;72.99;100175.94;1627461;87;25810;-68
2021/06/13 09:33:59;;;;;;;15.00;5.12;;;;;;;15.26;72.90;100174.34;1624777;86;25900;-69
2021/06/13 09:36:30;;;;;;;12.35;5.70;;;;;;;15.25;72.95;100181.48;1624295;86;27323;-71
2021/06/13 09:39:07;;;;;;;14.05;4.30;;;;;;;15.25;73.07;100180.13;1602838;87;25761;-71
2021/06/13 09:41:39;;;;;;;11.50;4.53;;;;;;;15.26;72.96;100181.73;1627102;87;25866;-70
2021/06/13 09:44:09;;;;;;;16.85;5.90;;;;;;;15.28;73.12;100189.77;1617032;86;27062;-69
2021/06/13 09:46:40;;;;;;;17.30;4.80;;;;;;;15.30;73.33;100186.13;1621443;85;25738;-69
2021/06/13 09:49:09;;;;;;;17.27;5.20;;;;;;;15.34;72.86;100190.34;1628073;85;27333;-70
2021/06/13 09:51:44;;;;;;;14.25;5.03;;;;;;;15.34;72.78;100189.53;1627779;85;25929;-69
2021/06/13 09:54:18;;;;;;;12.37;4.60;;;;;;;15.35;72.62;100181.59;1628153;86;25875;-67
2021/06/13 09:56:45;;;;;;;13.62;4.70;;;;;;;15.38;72.80;100189.09;1617982;87;26176;-66
2021/06/13 09:59:15;;;;;;;17.00;5.00;;;;;;;15.44;72.66;100184.97;1627478;86;25910;-68
2021/06/13 10:02:04;;;;;;;12.65;4.85;;;;;;;15.50;72.67;100185.75;1623171;86;26948;-70
2021/06/13 10:04:35;;;;;;;13.03;5.60;;;;;;;15.55;72.44;100188.03;1590764;87;25922;-69
2021/06/13 10:07:23;;;;;;;10.75;4.45;;;;;;;15.61;73.10;100194.26;1622149;87;26430;-69
2021/06/13 10:09:56;;;;;;;12.03;4.87;;;;;;;15.63;72.83;100193.34;1612618;87;25979;-80
2021/06/13 10:12:24;;;;;;;10.05;4.05;;;;;;;15.64;72.84;100188.67;1625399;86;25483;-70
2021/06/13 10:14:52;;;;;;;17.87;4.53;;;;;;;15.65;72.36;100187.55;1621870;85;27370;-68
2021/06/13 10:17:32;;;;;;;15.50;4.58;;;;;;;15.68;72.77;100199.91;1616466;86;25836;-68
2021/06/13 10:20:04;;;;;;;13.58;4.87;;;;;;;15.77;72.69;100197.65;1580407;88;26157;-69
2021/06/13 10:22:31;;;;;;;13.75;5.28;;;;;;;15.84;73.05;100204.09;1618198;86;26001;-68
2021/06/13 10:25:07;;;;;;;12.75;4.53;;;;;;;16.00;72.89;100200.03;1622873;85;26603;-71
2021/06/13 10:27:40;;;;;;;16.20;4.45;;;;;;;16.09;72.54;100185.45;1618839;86;26476;-69
2021/06/13 10:30:10;;;;;;;14.33;4.67;;;;;;;16.30;72.25;100205.13;1612585;85;26327;-69
2021/06/13 10:32:37;;;;;;;11.08;4.70;;;;;;;16.39;71.95;100209.06;1614296;87;25888;-69
2021/06/13 10:35:11;;;;;;;14.43;5.87;;;;;;;16.46;71.71;100204.36;1638620;85;25989;-74
2021/06/13 10:37:41;;;;;;;9.95;4.80;;;;;;;16.53;71.45;100203.98;1621061;85;25793;-69
2021/06/13 10:40:11;;;;;;;10.50;4.03;;;;;;;16.61;70.70;100207.67;1619064;85;26721;-73
2021/06/13 10:42:38;;;;;;;12.73;4.73;;;;;;;16.67;70.54;100198.08;1596500;87;25580;-71
2021/06/13 10:45:07;;;;;;;14.25;4.53;;;;;;;16.83;70.93;100202.16;1610698;86;25773;-72
2021/06/13 10:47:37;;;;;;;12.78;4.20;;;;;;;17.13;71.78;100205.25;1605826;87;26496;-66
2021/06/13 10:50:09;;;;;;;17.30;4.85;;;;;;;17.66;72.02;100210.31;1597484;87;25982;-69
2021/06/13 10:52:37;;;;;;;12.53;3.72;;;;;;;18.13;70.49;100198.94;1545489;89;25920;-70
2021/06/13 10:55:06;;;;;;;10.95;4.05;;;;;;;18.60;70.11;100209.37;1555033;89;25908;-66
2021/06/13 10:57:46;;;;;;;9.13;3.30;;;;;;;19.22;71.28;100214.10;1553691;90;26012;-66
2021/06/13 11:00:24;;;;;;;14.07;3.65;;;;;;;19.89;68.64;100200.30;1535949;91;26453;-71
2021/06/13 11:02:57;;;;;;;12.05;3.92;;;;;;;20.27;65.50;100216.78;1523784;92;25750;-66
2021/06/13 11:05:46;;;;;;;12.58;3.33;;;;;;;20.42;61.70;100202.02;1532876;91;27895;-71
2021/06/13 11:08:16;;;;;;;15.83;4.05;;;;;;;20.44;62.34;100202.42;1544440;91;26675;-67
2021/06/13 11:10:46;;;;;;;11.57;2.75;;;;;;;20.73;63.02;100204.09;1549209;91;25897;-66
2021/06/13 11:13:26;;;;;;;11.22;3.35;;;;;;;21.10;60.88;100200.44;1538948;91;25935;-70
2021/06/13 11:15:57;;;;;;;9.13;3.20;;;;;;;21.07;59.45;100199.82;1592722;86;25952;-71
2021/06/13 11:18:31;;;;;;;13.03;3.45;;;;;;;20.85;58.99;100208.50;1607810;87;28039;-70
2021/06/13 11:21:20;;;;;;;10.40;3.00;;;;;;;20.67;59.10;100210.52;1598897;88;26672;-71
2021/06/13 11:23:48;;;;;;;9.30;3.20;;;;;;;20.55;57.62;100222.34;1595000;87;25889;-71
2021/06/13 11:26:34;;;;;;;8.75;3.40;;;;;;;20.69;60.02;100211.52;1605618;88;25826;-70
2021/06/13 11:29:02;;;;;;;8.78;3.10;;;;;;;21.01;59.26;100204.90;1580962;88;25842;-71
2021/06/13 11:31:29;;;;;;;11.15;4.60;;;;;;;21.20;58.91;100201.09;1624150;86;27384;-72
2021/06/13 11:34:00;;;;;;;8.20;3.27;;;;;;;21.34;59.11;100217.48;1612708;86;26807;-71
2021/06/13 11:36:32;;;;;;;10.13;3.00;;;;;;;21.63;58.64;100199.96;1613801;86;25730;-75
2021/06/13 11:39:10;;;;;;;9.53;3.33;;;;;;;21.89;57.41;100202.81;1613857;87;26985;-72
2021/06/13 11:41:44;;;;;;;10.32;3.60;;;;;;;22.09;57.63;100203.27;1619974;85;25867;-72
2021/06/13 11:44:21;;;;;;;9.25;2.67;;;;;;;22.32;56.36;100206.51;1608944;87;27999;-74
2021/06/13 11:46:53;;;;;;;13.00;3.52;;;;;;;22.23;54.90;100211.56;1602866;88;26585;-73
2021/06/13 11:49:40;;;;;;;10.13;3.20;;;;;;;22.15;54.99;100217.66;1605715;86;25875;-74
2021/06/13 11:52:09;;;;;;;11.18;2.67;;;;;;;22.26;54.36;100217.67;1615298;86;26285;-72
2021/06/13 11:54:44;;;;;;;9.00;2.72;;;;;;;22.44;54.93;100229.33;1628802;85;25875;-71
2021/06/13 11:57:18;;;;;;;9.28;2.40;;;;;;;22.68;54.91;100225.83;1608871;87;27351;-72
2021/06/13 11:59:47;;;;;;;7.35;2.55;;;;;;;22.99;54.03;100226.81;1618003;87;25953;-72
2021/06/13 12:02:22;;;;;;;8.25;3.05;;;;;;;23.09;53.23;100215.79;1599034;87;25805;-73
2021/06/13 12:04:49;;;;;;;9.88;2.67;;;;;;;23.27;52.75;100220.48;1614542;87;26043;-74
2021/06/13 12:07:17;;;;;;;5.83;2.67;;;;;;;23.29;52.59;100218.91;1602971;87;25757;-76
2021/06/13 12:09:48;;;;;;;12.13;2.85;;;;;;;23.40;51.92;100209.82;1613211;86;28026;-74
2021/06/13 12:12:18;;;;;;;9.70;2.27;;;;;;;23.41;51.62;100216.89;1626143;85;25901;-74
2021/06/13 12:14:45;;;;;;;9.93;2.85;;;;;;;23.46;51.35;100209.59;1610179;86;27672;-75
2021/06/13 12:17:23;;;;;;;8.40;2.80;;;;;;;23.48;50.88;100207.23;1633434;86;25935;-75
2021/06/13 12:20:01;;;;;;;11.10;3.27;;;;;;;23.34;50.50;100217.70;1619314;86;25807;-74
2021/06/13 12:27:48;;;;;;;7.70;2.70;;;;;;;23.62;49.77;100222.96;1578091;89;25938;-75
2021/06/13 12:30:25;;;;;;;8.10;2.30;;;;;;;23.29;48.93;100225.81;1588715;86;25940;-75
2021/06/13 12:33:05;;;;;;;9.63;2.40;;;;;;;23.02;49.00;100230.95;1622241;86;25935;-76
2021/06/13 12:35:40;;;;;;;7.30;3.22;;;;;;;22.95;49.97;100226.79;1587011;87;27321;-67
2021/06/13 12:38:26;;;;;;;8.45;2.40;;;;;;;23.01;49.66;100214.79;1606324;87;25839;-77
2021/06/13 12:40:58;;;;;;;4.67;1.77;;;;;;;23.02;49.54;100215.78;1603448;86;25835;-70
2021/06/13 12:43:41;;;;;;;6.53;2.02;;;;;;;22.92;49.02;100223.47;1598751;86;25954;-71
2021/06/13 12:46:11;;;;;;;6.22;2.50;;;;;;;22.75;49.35;100221.69;1608441;86;25942;-70
2021/06/13 12:48:39;;;;;;;6.90;2.27;;;;;;;22.54;49.21;100223.86;1630488;84;27385;-74
2021/06/13 12:51:07;;;;;;;7.12;2.83;;;;;;;22.24;49.17;100237.94;1621703;86;25769;-73
2021/06/13 12:53:43;;;;;;;8.03;3.10;;;;;;;22.10;50.87;100229.63;1585026;87;25965;-71
2021/06/13 12:56:05;;;;;;;5.83;2.60;;;;;;;22.11;51.22;100239.47;1570988;88;25975;-71
2021/06/13 12:58:40;;;;;;;7.60;2.45;;;;;;;22.17;52.12;100240.08;1625286;86;26860;-73
2021/06/13 13:01:05;;;;;;;9.30;2.80;;;;;;;22.33;52.41;100232.86;1614702;86;27636;-72
2021/06/13 13:03:44;;;;;;;5.72;2.02;;;;;;;22.52;52.60;100234.46;1610353;86;25920;-72
2021/06/13 13:06:12;;;;;;;;;;;;;;;22.70;52.15;100230.95;1611913;87;26607;-69
2021/06/13 13:08:45;;;;;;;6.47;2.37;;;;;;;22.98;51.84;100224.63;1615168;87;26555;-73
2021/06/13 13:11:32;;;;;;;7.42;2.83;;;;;;;23.16;51.23;100227.41;1619256;87;26690;-72
2021/06/13 13:14:07;;;;;;;6.95;3.40;;;;;;;23.28;50.48;100224.23;1604188;87;27405;-74
2021/06/13 13:16:36;;;;;;;6.53;2.40;;;;;;;23.50;50.53;100218.66;1597305;87;26321;-72
2021/06/13 13:19:07;;;;;;;8.78;2.47;;;;;;;23.55;49.01;100213.30;1599784;86;26094;-74
2021/06/13 13:21:38;;;;;;;10.93;2.72;;;;;;;23.39;48.72;100220.66;1601499;88;26511;-74
2021/06/13 13:24:32;;;;;;;6.55;2.37;;;;;;;23.30;48.76;100219.09;1595707;88;26022;-75
2021/06/13 13:27:06;;;;;;;9.08;2.00;;;;;;;23.46;48.96;100224.77;1544311;91;27343;-75
2021/06/13 13:29:42;;;;;;;7.70;2.60;;;;;;;23.55;48.69;100221.01;1541486;90;25954;-74
2021/06/13 13:32:10;;;;;;;7.47;3.05;;;;;;;23.55;47.62;100221.58;1544300;90;26023;-73
2021/06/13 13:34:36;;;;;;;9.00;3.60;;;;;;;23.54;46.97;100214.50;1546637;90;26605;-75
2021/06/13 13:37:15;;;;;;;8.98;2.65;;;;;;;23.63;47.27;100226.70;1570323;90;26167;-74
2021/06/13 13:39:49;;;;;;;7.37;1.77;;;;;;;23.72;47.01;100242.84;1527504;90;27375;-74
2021/06/13 13:42:14;;;;;;;7.10;1.85;;;;;;;23.71;45.68;100231.59;1543842;90;26103;-72
2021/06/13 13:44:41;;;;;;;7.50;1.67;;;;;;;23.72;46.15;100244.80;1526739;92;26610;-72
2021/06/13 13:47:16;;;;;;;8.70;2.15;;;;;;;23.73;45.55;100243.63;1526301;91;26173;-75
2021/06/13 13:49:43;;;;;;;5.95;2.30;;;;;;;23.69;44.96;100246.39;1576098;88;26447;-73
2021/06/13 13:52:22;;;;;;;5.37;1.90;;;;;;;23.42;45.09;100237.20;1586535;88;27896;-74
2021/06/13 13:55:00;;;;;;;8.55;2.30;;;;;;;23.28;45.90;100257.34;1568372;89;26015;-76
2021/06/13 13:57:46;;;;;;;8.48;1.98;;;;;;;23.27;46.10;100277.05;1576794;88;26493;-76
2021/06/13 14:00:15;;;;;;;14.58;1.95;;;;;;;23.19;45.61;100260.30;1592372;88;25850;-76
2021/06/13 14:02:41;;;;;;;5.75;1.90;;;;;;;23.06;45.53;100253.03;1584180;89;25757;-75
2021/06/13 14:05:10;;;;;;;3.98;1.60;;;;;;;22.99;45.84;100265.42;1586349;88;27393;-76
2021/06/13 14:07:36;;;;;;;7.85;2.00;;;;;;;23.04;46.17;100274.69;1590299;88;25867;-76
2021/06/13 14:10:04;;;;;;;6.17;2.35;;;;;;;23.08;46.32;100273.51;1602008;88;26151;-81
2021/06/13 14:12:30;;;;;;;8.45;2.52;;;;;;;23.09;45.73;100256.39;1573407;89;26630;-75
2021/06/13 14:14:57;;;;;;;3.33;1.70;;;;;;;23.04;45.44;100267.19;1588148;88;25977;-79
2021/06/13 14:17:23;;;;;;;7.20;2.00;;;;;;;22.93;45.29;100271.34;1583814;89;27366;-76
2021/06/13 14:19:50;;;;;;;6.00;1.85;;;;;;;22.88;45.41;100268.97;1582434;87;25841;-75
2021/06/13 14:22:16;;;;;;;6.25;2.20;;;;;;;22.87;45.80;100272.13;1607565;86;25994;-76
2021/06/13 14:24:42;;;;;;;6.47;1.65;;;;;;;22.92;46.18;100280.00;1598690;86;26416;-68
2021/06/13 14:27:09;;;;;;;7.50;2.17;;;;;;;22.97;46.10;100276.04;1607947;87;25773;-66
2021/06/13 14:29:36;;;;;;;5.83;2.20;;;;;;;23.06;46.34;100270.97;1608489;87;27434;-66
2021/06/13 14:32:03;;;;;;;4.08;1.92;;;;;;;23.06;45.97;100277.27;1609061;87;26064;-68
2021/06/13 14:34:30;;;;;;;5.97;2.12;;;;;;;22.89;44.90;100260.09;1595653;87;26379;-69
2021/06/13 14:36:59;;;;;;;8.48;2.10;;;;;;;22.74;45.64;100264.22;1616255;87;26121;-67
2021/06/13 14:39:25;;;;;;;5.10;2.00;;;;;;;22.71;46.35;100271.91;1626489;87;33701;-68
2021/06/13 14:41:52;;;;;;;7.65;2.50;;;;;;;22.74;46.02;100269.73;1614468;87;27026;-68
2021/06/13 14:44:18;;;;;;;7.00;1.80;;;;;;;22.74;46.69;100273.86;1610224;86;26042;-66
2021/06/13 14:46:45;;;;;;;11.48;2.40;;;;;;;22.76;46.39;100280.36;1640075;85;25857;-66
2021/06/13 14:49:11;;;;;;;7.28;1.92;;;;;;;22.77;46.53;100274.28;1648240;85;25971;-66
2021/06/13 14:51:38;;;;;;;5.75;1.80;;;;;;;22.72;46.08;100283.12;1628770;86;25965;-67
2021/06/13 14:54:05;;;;;;;5.55;1.95;;;;;;;22.60;45.96;100297.28;1635340;85;27285;-67
2021/06/13 14:56:32;;;;;;;3.85;1.55;;;;;;;22.34;45.63;100286.80;1608360;85;25934;-69
2021/06/13 14:58:58;;;;;;;4.25;2.00;;;;;;;22.11;45.83;100295.34;1589204;87;25734;-69
2021/06/13 15:01:25;;;;;;;3.37;1.57;;;;;;;21.90;46.11;100291.91;1601326;86;26454;-68
2021/06/13 15:03:55;;;;;;;4.70;1.60;;;;;;;21.83;46.62;100297.39;1617454;86;25740;-67
2021/06/13 15:06:21;;;;;;;7.35;2.72;;;;;;;21.72;46.20;100293.78;1611997;87;28508;-68
2021/06/13 15:08:48;;;;;;;5.83;1.95;;;;;;;21.59;46.17;100295.48;1570222;88;26081;-67
2021/06/13 15:11:14;;;;;;;5.03;1.52;;;;;;;21.43;46.16;100300.45;1567962;89;27004;-67
2021/06/13 15:13:41;;;;;;;5.00;1.80;;;;;;;21.31;46.47;100302.92;1580546;88;25902;-66
2021/06/13 15:16:08;;;;;;;5.08;1.60;;;;;;;21.17;46.28;100304.98;1562483;90;25988;-68
2021/06/13 15:18:34;;;;;;;4.53;1.60;;;;;;;21.07;46.43;100312.56;1588526;88;28107;-68
2021/06/13 15:21:01;;;;;;;5.80;1.95;;;;;;;20.88;46.14;100307.48;1587435;88;25899;-67
2021/06/13 15:23:29;;;;;;;2.85;1.82;;;;;;;20.70;46.08;100310.08;1589852;88;25912;-67
2021/06/13 15:25:59;;;;;;;5.30;1.40;;;;;;;20.54;46.23;100317.72;1594085;88;26072;-66
2021/06/13 15:28:27;;;;;;;2.80;1.40;;;;;;;20.45;47.13;100326.83;1591093;87;25931;-67
2021/06/13 15:30:54;;;;;;;5.00;1.52;;;;;;;20.36;47.15;100318.88;1583175;88;28252;-65
2021/06/13 15:33:22;;;;;;;6.42;1.77;;;;;;;20.26;47.37;100316.24;1575164;88;25866;-70
2021/06/13 15:35:49;;;;;;;4.40;1.70;;;;;;;20.26;47.85;100319.55;1574558;88;25836;-71
2021/06/13 15:38:17;;;;;;;5.10;1.90;;;;;;;20.28;47.86;100324.11;1603602;87;26204;-64
2021/06/13 15:40:43;;;;;;;3.67;1.62;;;;;;;20.30;47.98;100322.55;1602388;87;25953;-65
2021/06/13 15:43:10;;;;;;;2.45;1.52;;;;;;;20.30;48.25;100321.77;1628028;86;27339;-66
2021/06/13 15:45:40;;;;;;;7.25;1.95;;;;;;;20.29;48.21;100317.43;1609493;86;25834;-65
2021/06/13 15:48:09;;;;;;;5.80;1.45;;;;;;;20.24;48.37;100312.27;1627471;87;26225;-64
2021/06/13 15:50:37;;;;;;;5.43;1.40;;;;;;;20.21;48.59;100317.95;1627469;87;26165;-66
2021/06/13 15:53:05;;;;;;;5.25;1.37;;;;;;;20.17;48.29;100310.82;1611338;87;26011;-66
2021/06/13 15:55:38;;;;;;;4.63;1.60;;;;;;;20.11;48.47;100309.77;1611075;86;27309;-65
2021/06/13 15:58:04;;;;;;;6.45;4.35;;;;;;;20.09;48.43;100321.72;1617710;87;25962;-66
2021/06/13 16:00:32;;;;;;;4.65;1.55;;;;;;;20.05;48.54;100326.36;1629427;86;26445;-64
2021/06/13 16:02:58;;;;;;;4.12;1.20;;;;;;;20.01;48.48;100322.00;1616027;87;26517;-66
2021/06/13 16:05:25;;;;;;;7.42;1.70;;;;;;;19.95;48.89;100314.66;1619659;86;25789;-68
2021/06/13 16:07:52;;;;;;;5.65;1.82;;;;;;;19.89;48.93;100318.31;1603434;87;27339;-67
2021/06/13 16:10:19;;;;;;;3.05;1.57;;;;;;;19.82;49.11;100311.92;1616176;86;26518;-68
2021/06/13 16:12:45;;;;;;;5.72;2.08;;;;;;;19.77;49.50;100313.84;1617949;87;25865;-66
2021/06/13 16:15:20;;;;;;;6.65;2.20;;;;;;;19.75;49.73;100313.98;1627745;86;26305;-66
2021/06/13 16:17:50;;;;;;;3.70;1.75;;;;;;;19.73;49.95;100316.28;1621698;86;26091;-67
2021/06/13 16:20:17;;;;;;;5.65;2.37;;;;;;;19.73;50.26;100321.77;1615117;86;27391;-66
2021/06/13 16:22:45;;;;;;;7.42;1.90;;;;;;;19.68;50.34;100318.79;1613731;87;26033;-66
2021/06/13 16:25:13;;;;;;;3.72;1.70;;;;;;;19.65;50.62;100318.16;1602526;87;26186;-68
2021/06/13 16:27:40;;;;;;;4.05;1.60;;;;;;;19.57;50.96;100322.73;1589785;88;26559;-67
2021/06/13 16:30:11;;;;;;;5.12;1.80;;;;;;;19.53;51.18;100334.24;1605900;87;25959;-66
2021/06/13 16:32:38;;;;;;;3.70;1.72;;;;;;;19.49;51.63;100323.78;1650751;85;28118;-72
2021/06/13 16:35:07;;;;;;;6.58;2.08;;;;;;;19.47;51.68;100331.59;1636969;85;25816;-71
2021/06/13 16:37:33;;;;;;;4.10;2.00;;;;;;;19.43;52.16;100330.75;1639083;85;26539;-71
2021/06/13 16:40:02;;;;;;;6.83;2.10;;;;;;;19.42;52.33;100341.50;1624958;86;26088;-72
2021/06/13 16:42:30;;;;;;;1.92;1.70;;;;;;;19.44;52.50;100337.02;1638650;86;32658;-72
2021/06/13 16:45:00;;;;;;;3.37;1.70;;;;;;;19.45;52.65;100342.73;1648162;85;27989;-72
2021/06/13 16:47:26;;;;;;;;;;;;;;;19.43;52.79;100349.95;1613390;87;27193;-71
2021/06/13 16:49:52;;;;;;;9.73;2.33;;;;;;;19.40;52.78;100359.70;1614932;87;25946;-71
2021/06/13 16:52:19;;;;;;;4.67;2.27;;;;;;;19.37;52.79;100361.02;1636579;85;28137;-71
2021/06/13 16:54:46;;;;;;;5.22;2.22;;;;;;;19.32;52.52;100358.58;1635242;86;26602;-71
2021/06/13 16:57:13;;;;;;;7.85;2.62;;;;;;;19.30;52.26;100362.27;1625419;85;27362;-72
2021/06/13 16:59:40;;;;;;;6.37;2.30;;;;;;;19.27;52.23;100365.16;1638437;85;25813;-71
2021/06/13 17:02:06;;;;;;;6.45;2.35;;;;;;;19.25;51.93;100371.59;1636924;85;26024;-73
2021/06/13 17:04:34;;;;;;;5.17;2.37;;;;;;;19.24;52.13;100367.28;1626857;85;25932;-72
2021/06/13 17:07:01;;;;;;;7.30;2.40;;;;;;;19.24;52.03;100370.02;1617860;87;25880;-69
2021/06/13 17:09:28;;;;;;;9.50;2.00;;;;;;;19.26;52.00;100367.70;1595354;87;28507;-73
2021/06/13 17:11:55;;;;;;;7.70;2.10;;;;;;;19.30;51.91;100382.84;1606587;87;26534;-72
2021/06/13 17:14:21;;;;;;;7.12;2.00;;;;;;;19.31;51.79;100385.22;1616215;87;25914;-72
2021/06/13 17:16:48;;;;;;;6.83;2.47;;;;;;;19.33;51.71;100392.50;1611846;87;25933;-71
2021/06/13 17:19:14;;;;;;;4.45;2.05;;;;;;;19.33;51.79;100388.97;1616245;87;25941;-70
2021/06/13 17:21:43;;;;;;;7.37;1.80;;;;;;;19.33;51.78;100397.98;1594775;87;27437;-70
2021/06/13 17:24:11;;;;;;;7.87;2.05;;;;;;;19.30;51.64;100403.41;1623157;87;26408;-67
2021/06/13 17:26:39;;;;;;;5.97;2.37;;;;;;;19.34;51.75;100416.59;1593411;87;26434;-67
2021/06/13 17:29:06;;;;;;;8.33;2.58;;;;;;;19.27;51.88;100406.28;1626243;87;25940;-68
2021/06/13 17:31:37;;;;;;;7.83;1.65;;;;;;;19.26;51.87;100409.39;1612433;87;25874;-66
2021/06/13 17:34:08;;;;;;;7.42;2.45;;;;;;;19.25;51.99;100413.30;1606730;87;27359;-67
2021/06/13 17:36:37;;;;;;;6.37;2.10;;;;;;;19.24;52.00;100422.12;1594375;88;26622;-66
2021/06/13 17:39:09;;;;;;;9.20;2.98;;;;;;;19.22;52.14;100421.11;1606850;87;25835;-65